sensor_id;sensor_type;location;lat;lon;timestamp;pressure;altitude;pressure_sealevel;temperature;humidity
72525;BME280;60547;48.502;8.996;2023-02-28T00:02:17;98513.34;;;-1.45;60.99
72525;BME280;60547;48.502;8.996;2023-02-28T00:04:43;98514.94;;;-1.44;61.43
72525;BME280;60547;48.502;8.996;2023-02-28T00:07:09;98518.78;;;-1.45;61.79
72525;BME280;60547;48.502;8.996;2023-02-28T00:09:35;98514.34;;;-1.38;61.37
72525;BME280;60547;48.502;8.996;2023-02-28T00:12:00;98519.94;;;-1.34;62.40
72525;BME280;60547;48.502;8.996;2023-02-28T00:14:36;98525.16;;;-1.53;61.68
72525;BME280;60547;48.502;8.996;2023-02-28T00:17:01;98517.44;;;-1.64;62.00
72525;BME280;60547;48.502;8.996;2023-02-28T00:19:27;98512.88;;;-1.59;61.79
72525;BME280;60547;48.502;8.996;2023-02-28T00:21:52;98518.47;;;-1.56;61.56
72525;BME280;60547;48.502;8.996;2023-02-28T00:24:18;98520.03;;;-1.43;62.69
72525;BME280;60547;48.502;8.996;2023-02-28T00:26:43;98515.38;;;-1.54;62.12
72525;BME280;60547;48.502;8.996;2023-02-28T00:29:09;98523.47;;;-1.58;61.77
72525;BME280;60547;48.502;8.996;2023-02-28T00:31:35;98521.66;;;-1.54;61.74
72525;BME280;60547;48.502;8.996;2023-02-28T00:34:00;98516.75;;;-1.60;61.65
72525;BME280;60547;48.502;8.996;2023-02-28T00:36:26;98509.72;;;-1.61;62.27
72525;BME280;60547;48.502;8.996;2023-02-28T00:38:51;98522.66;;;-1.46;62.72
72525;BME280;60547;48.502;8.996;2023-02-28T00:41:17;98514.94;;;-1.44;62.58
72525;BME280;60547;48.502;8.996;2023-02-28T00:43:43;98508.34;;;-1.43;62.67
72525;BME280;60547;48.502;8.996;2023-02-28T00:46:08;98505.16;;;-1.45;62.58
72525;BME280;60547;48.502;8.996;2023-02-28T00:48:34;98511.28;;;-1.36;62.58
72525;BME280;60547;48.502;8.996;2023-02-28T00:51:00;98511.84;;;-1.31;62.36
72525;BME280;60547;48.502;8.996;2023-02-28T00:53:26;98501.19;;;-1.72;62.71
72525;BME280;60547;48.502;8.996;2023-02-28T00:55:51;98513.81;;;-1.55;62.98
72525;BME280;60547;48.502;8.996;2023-02-28T00:58:17;98510.63;;;-1.57;62.95
72525;BME280;60547;48.502;8.996;2023-02-28T01:00:43;98509.59;;;-1.53;62.12
72525;BME280;60547;48.502;8.996;2023-02-28T01:03:08;98499.25;;;-1.47;61.95
72525;BME280;60547;48.502;8.996;2023-02-28T01:05:34;98509.59;;;-1.41;62.32
72525;BME280;60547;48.502;8.996;2023-02-28T01:07:59;98500.16;;;-1.43;62.74
72525;BME280;60547;48.502;8.996;2023-02-28T01:10:25;98501.06;;;-1.39;63.04
72525;BME280;60547;48.502;8.996;2023-02-28T01:12:52;98501.84;;;-1.39;63.29
72525;BME280;60547;48.502;8.996;2023-02-28T01:15:18;98512.09;;;-1.36;62.57
72525;BME280;60547;48.502;8.996;2023-02-28T01:17:43;98494.72;;;-1.80;62.88
72525;BME280;60547;48.502;8.996;2023-02-28T01:20:09;98499.03;;;-1.54;62.47
72525;BME280;60547;48.502;8.996;2023-02-28T01:22:35;98509.59;;;-1.89;63.79
72525;BME280;60547;48.502;8.996;2023-02-28T01:25:00;98497.66;;;-1.73;63.82
72525;BME280;60547;48.502;8.996;2023-02-28T01:27:26;98496.75;;;-1.65;63.41
72525;BME280;60547;48.502;8.996;2023-02-28T01:29:52;98504.94;;;-1.65;63.04
72525;BME280;60547;48.502;8.996;2023-02-28T01:32:17;98504.47;;;-1.79;63.04
72525;BME280;60547;48.502;8.996;2023-02-28T01:34:43;98493.91;;;-1.68;63.16
72525;BME280;60547;48.502;8.996;2023-02-28T01:37:08;98486.75;;;-1.73;63.63
72525;BME280;60547;48.502;8.996;2023-02-28T01:39:34;98492.22;;;-1.60;64.41
72525;BME280;60547;48.502;8.996;2023-02-28T01:41:59;98492.88;;;-1.64;63.53
72525;BME280;60547;48.502;8.996;2023-02-28T01:45:00;98491.50;;;-1.45;63.03
72525;BME280;60547;48.502;8.996;2023-02-28T01:47:33;98483.09;;;-1.52;63.03
72525;BME280;60547;48.502;8.996;2023-02-28T01:50:02;98482.75;;;-1.51;63.19
72525;BME280;60547;48.502;8.996;2023-02-28T01:52:30;98480.38;;;-1.65;64.00
72525;BME280;60547;48.502;8.996;2023-02-28T01:54:58;98479.72;;;-1.74;64.34
72525;BME280;60547;48.502;8.996;2023-02-28T01:57:32;98479.03;;;-1.58;63.80
72525;BME280;60547;48.502;8.996;2023-02-28T02:00:11;98477.44;;;-1.59;64.28
72525;BME280;60547;48.502;8.996;2023-02-28T02:02:42;98482.44;;;-1.61;63.84
72525;BME280;60547;48.502;8.996;2023-02-28T02:05:10;98483.22;;;-1.73;63.76
72525;BME280;60547;48.502;8.996;2023-02-28T02:07:41;98480.84;;;-1.75;64.17
72525;BME280;60547;48.502;8.996;2023-02-28T02:10:20;98469.13;;;-1.87;64.43
72525;BME280;60547;48.502;8.996;2023-02-28T02:13:08;98475.50;;;-1.83;65.08
72525;BME280;60547;48.502;8.996;2023-02-28T02:15:44;98467.22;;;-1.87;64.69
72525;BME280;60547;48.502;8.996;2023-02-28T02:18:20;98469.47;;;-1.77;65.87
72525;BME280;60547;48.502;8.996;2023-02-28T02:34:59;98460.47;;;-2.14;67.04
72525;BME280;60547;48.502;8.996;2023-02-28T02:40:22;98467.66;;;-1.97;66.25
72525;BME280;60547;48.502;8.996;2023-02-28T02:45:36;98458.34;;;-1.72;65.37
72525;BME280;60547;48.502;8.996;2023-02-28T02:48:07;98470.38;;;-1.73;66.35
72525;BME280;60547;48.502;8.996;2023-02-28T02:50:44;98474.38;;;-1.70;66.05
72525;BME280;60547;48.502;8.996;2023-02-28T02:53:13;98466.88;;;-1.73;65.23
72525;BME280;60547;48.502;8.996;2023-02-28T02:55:41;98475.16;;;-1.70;65.37
72525;BME280;60547;48.502;8.996;2023-02-28T02:58:14;98464.13;;;-1.73;65.54
72525;BME280;60547;48.502;8.996;2023-02-28T03:00:46;98483.22;;;-1.98;66.70
72525;BME280;60547;48.502;8.996;2023-02-28T03:03:16;98486.41;;;-1.83;65.77
72525;BME280;60547;48.502;8.996;2023-02-28T03:05:49;98476.28;;;-1.83;67.13
72525;BME280;60547;48.502;8.996;2023-02-28T03:08:15;98478.00;;;-1.78;66.42
72525;BME280;60547;48.502;8.996;2023-02-28T03:10:45;98485.63;;;-1.72;66.47
72525;BME280;60547;48.502;8.996;2023-02-28T03:22:10;98465.50;;;-1.79;67.27
72525;BME280;60547;48.502;8.996;2023-02-28T03:27:24;98474.47;;;-1.67;67.58
72525;BME280;60547;48.502;8.996;2023-02-28T03:30:17;98459.47;;;-1.60;66.66
72525;BME280;60547;48.502;8.996;2023-02-28T03:32:58;98468.56;;;-1.56;67.01
72525;BME280;60547;48.502;8.996;2023-02-28T03:35:29;98455.84;;;-1.65;66.87
72525;BME280;60547;48.502;8.996;2023-02-28T03:38:11;98465.16;;;-1.90;67.63
72525;BME280;60547;48.502;8.996;2023-02-28T03:40:43;98460.97;;;-1.87;67.31
72525;BME280;60547;48.502;8.996;2023-02-28T03:43:17;98454.03;;;-1.73;67.34
72525;BME280;60547;48.502;8.996;2023-02-28T03:45:44;98455.84;;;-1.65;67.43
72525;BME280;60547;48.502;8.996;2023-02-28T03:48:19;98461.75;;;-1.63;67.72
72525;BME280;60547;48.502;8.996;2023-02-28T03:50:49;98460.59;;;-1.61;67.50
72525;BME280;60547;48.502;8.996;2023-02-28T03:53:25;98459.47;;;-1.85;67.15
72525;BME280;60547;48.502;8.996;2023-02-28T03:55:57;98460.38;;;-1.69;67.46
72525;BME280;60547;48.502;8.996;2023-02-28T03:58:30;98473.31;;;-1.53;66.99
72525;BME280;60547;48.502;8.996;2023-02-28T04:01:20;98454.25;;;-1.66;67.19
72525;BME280;60547;48.502;8.996;2023-02-28T04:03:46;98462.19;;;-1.60;67.46
72525;BME280;60547;48.502;8.996;2023-02-28T04:06:20;98459.38;;;-1.76;68.31
72525;BME280;60547;48.502;8.996;2023-02-28T04:08:47;98468.44;;;-1.60;67.74
72525;BME280;60547;48.502;8.996;2023-02-28T04:11:19;98459.59;;;-1.69;68.52
72525;BME280;60547;48.502;8.996;2023-02-28T04:13:46;98456.84;;;-1.69;68.18
72525;BME280;60547;48.502;8.996;2023-02-28T04:16:11;98453.34;;;-1.70;68.66
72525;BME280;60547;48.502;8.996;2023-02-28T04:18:38;98449.91;;;-1.54;67.56
72525;BME280;60547;48.502;8.996;2023-02-28T04:21:04;98454.47;;;-1.71;69.10
72525;BME280;60547;48.502;8.996;2023-02-28T04:23:30;98452.75;;;-1.63;67.69
72525;BME280;60547;48.502;8.996;2023-02-28T04:25:56;98451.75;;;-1.83;68.45
72525;BME280;60547;48.502;8.996;2023-02-28T04:28:22;98457.44;;;-1.64;68.90
72525;BME280;60547;48.502;8.996;2023-02-28T04:30:53;98453.78;;;-1.55;68.16
72525;BME280;60547;48.502;8.996;2023-02-28T04:33:18;98451.75;;;-1.71;68.54
72525;BME280;60547;48.502;8.996;2023-02-28T04:35:44;98456.28;;;-1.50;68.00
72525;BME280;60547;48.502;8.996;2023-02-28T04:38:09;98460.38;;;-1.56;68.44
72525;BME280;60547;48.502;8.996;2023-02-28T04:40:35;98446.16;;;-1.50;68.62
72525;BME280;60547;48.502;8.996;2023-02-28T04:43:00;98465.81;;;-1.44;68.77
72525;BME280;60547;48.502;8.996;2023-02-28T04:45:26;98462.84;;;-1.39;69.16
72525;BME280;60547;48.502;8.996;2023-02-28T04:47:55;98458.28;;;-1.35;69.16
72525;BME280;60547;48.502;8.996;2023-02-28T04:50:20;98457.28;;;-1.43;68.85
72525;BME280;60547;48.502;8.996;2023-02-28T04:52:46;98458.41;;;-1.32;68.58
72525;BME280;60547;48.502;8.996;2023-02-28T04:55:11;98457.41;;;-1.39;69.41
72525;BME280;60547;48.502;8.996;2023-02-28T04:57:37;98457.19;;;-1.46;69.43
72525;BME280;60547;48.502;8.996;2023-02-28T05:00:03;98457.44;;;-1.76;71.15
72525;BME280;60547;48.502;8.996;2023-02-28T05:02:34;98468.47;;;-1.84;71.25
72525;BME280;60547;48.502;8.996;2023-02-28T05:05:00;98464.38;;;-1.78;71.83
72525;BME280;60547;48.502;8.996;2023-02-28T05:07:26;98474.47;;;-1.79;70.85
72525;BME280;60547;48.502;8.996;2023-02-28T05:09:51;98472.19;;;-1.65;70.75
72525;BME280;60547;48.502;8.996;2023-02-28T05:12:17;98466.50;;;-1.59;71.02
72525;BME280;60547;48.502;8.996;2023-02-28T05:14:42;98466.97;;;-1.57;70.95
72525;BME280;60547;48.502;8.996;2023-02-28T05:17:09;98468.09;;;-1.46;71.38
72525;BME280;60547;48.502;8.996;2023-02-28T05:19:35;98475.34;;;-1.38;70.96
72525;BME280;60547;48.502;8.996;2023-02-28T05:22:01;98478.44;;;-1.40;70.04
72525;BME280;60547;48.502;8.996;2023-02-28T05:24:35;98487.53;;;-1.60;72.11
72525;BME280;60547;48.502;8.996;2023-02-28T05:27:07;98479.03;;;-1.71;71.62
72525;BME280;60547;48.502;8.996;2023-02-28T05:29:36;98481.41;;;-1.57;71.75
72525;BME280;60547;48.502;8.996;2023-02-28T05:32:17;98480.38;;;-1.52;72.68
72525;BME280;60547;48.502;8.996;2023-02-28T05:34:45;98482.31;;;-1.53;71.61
72525;BME280;60547;48.502;8.996;2023-02-28T05:37:12;98471.53;;;-1.61;72.52
72525;BME280;60547;48.502;8.996;2023-02-28T05:39:40;98483.09;;;-1.52;72.74
72525;BME280;60547;48.502;8.996;2023-02-28T05:42:06;98477.78;;;-1.61;73.29
72525;BME280;60547;48.502;8.996;2023-02-28T05:44:33;98478.09;;;-1.50;72.66
72525;BME280;60547;48.502;8.996;2023-02-28T05:46:59;98469.72;;;-1.70;73.68
72525;BME280;60547;48.502;8.996;2023-02-28T05:49:24;98461.63;;;-1.78;74.36
72525;BME280;60547;48.502;8.996;2023-02-28T05:51:50;98483.13;;;-1.65;74.17
72525;BME280;60547;48.502;8.996;2023-02-28T05:54:15;98471.41;;;-1.65;73.77
72525;BME280;60547;48.502;8.996;2023-02-28T05:56:41;98479.03;;;-1.58;73.22
72525;BME280;60547;48.502;8.996;2023-02-28T05:59:09;98458.09;;;-1.67;73.98
72525;BME280;60547;48.502;8.996;2023-02-28T06:04:06;98475.50;;;-1.59;73.35
72525;BME280;60547;48.502;8.996;2023-02-28T06:06:32;98477.19;;;-1.54;73.76
72525;BME280;60547;48.502;8.996;2023-02-28T06:08:59;98486.75;;;-1.48;73.10
72525;BME280;60547;48.502;8.996;2023-02-28T06:11:26;98491.53;;;-1.70;74.01
72525;BME280;60547;48.502;8.996;2023-02-28T06:13:56;98487.88;;;-1.61;73.76
72525;BME280;60547;48.502;8.996;2023-02-28T06:16:23;98497.19;;;-1.50;73.06
72525;BME280;60547;48.502;8.996;2023-02-28T06:18:49;98489.25;;;-1.68;73.53
72525;BME280;60547;48.502;8.996;2023-02-28T06:21:15;98499.94;;;-1.63;74.08
72525;BME280;60547;48.502;8.996;2023-02-28T06:23:40;98501.88;;;-1.51;73.73
72525;BME280;60547;48.502;8.996;2023-02-28T06:26:06;98503.09;;;-1.48;73.24
72525;BME280;60547;48.502;8.996;2023-02-28T06:28:31;98496.75;;;-1.52;73.89
72525;BME280;60547;48.502;8.996;2023-02-28T06:30:57;98497.53;;;-1.76;74.27
72525;BME280;60547;48.502;8.996;2023-02-28T06:33:22;98496.88;;;-1.73;73.87
72525;BME280;60547;48.502;8.996;2023-02-28T06:35:51;98504.25;;;-1.61;73.61
72525;BME280;60547;48.502;8.996;2023-02-28T06:38:17;98505.59;;;-1.43;73.38
72525;BME280;60547;48.502;8.996;2023-02-28T06:40:44;98499.94;;;-1.50;72.20
72525;BME280;60547;48.502;8.996;2023-02-28T06:43:09;98506.28;;;-1.46;71.48
72525;BME280;60547;48.502;8.996;2023-02-28T06:45:42;98520.84;;;-1.54;72.02
72525;BME280;60547;48.502;8.996;2023-02-28T06:48:08;98506.97;;;-1.98;72.12
72525;BME280;60547;48.502;8.996;2023-02-28T06:50:34;98528.78;;;-1.98;74.11
72525;BME280;60547;48.502;8.996;2023-02-28T06:52:59;98501.28;;;-1.81;73.02
72525;BME280;60547;48.502;8.996;2023-02-28T06:55:25;98524.25;;;-1.70;72.79
72525;BME280;60547;48.502;8.996;2023-02-28T06:57:52;98510.03;;;-1.75;72.61
72525;BME280;60547;48.502;8.996;2023-02-28T07:00:21;98534.25;;;-1.61;71.69
72525;BME280;60547;48.502;8.996;2023-02-28T07:02:46;98527.91;;;-1.53;72.78
72525;BME280;60547;48.502;8.996;2023-02-28T07:05:12;98517.66;;;-1.56;71.49
72525;BME280;60547;48.502;8.996;2023-02-28T07:07:38;98521.53;;;-1.57;71.58
72525;BME280;60547;48.502;8.996;2023-02-28T07:10:06;98522.09;;;-1.52;71.84
72525;BME280;60547;48.502;8.996;2023-02-28T07:12:33;98524.81;;;-1.52;71.62
72525;BME280;60547;48.502;8.996;2023-02-28T07:14:58;98523.69;;;-1.51;71.09
72525;BME280;60547;48.502;8.996;2023-02-28T07:17:24;98526.75;;;-1.65;71.44
72525;BME280;60547;48.502;8.996;2023-02-28T07:19:49;98521.06;;;-1.72;71.22
72525;BME280;60547;48.502;8.996;2023-02-28T07:22:15;98524.03;;;-1.52;70.85
72525;BME280;60547;48.502;8.996;2023-02-28T07:24:40;98531.75;;;-1.54;70.62
72525;BME280;60547;48.502;8.996;2023-02-28T07:27:06;98534.03;;;-1.56;70.66
72525;BME280;60547;48.502;8.996;2023-02-28T07:29:31;98539.50;;;-1.56;70.32
72525;BME280;60547;48.502;8.996;2023-02-28T07:31:57;98526.28;;;-1.30;70.31
72525;BME280;60547;48.502;8.996;2023-02-28T07:34:23;98521.63;;;-1.42;69.88
72525;BME280;60547;48.502;8.996;2023-02-28T07:36:49;98534.50;;;-1.42;70.67
72525;BME280;60547;48.502;8.996;2023-02-28T07:39:18;98530.75;;;-1.50;70.13
72525;BME280;60547;48.502;8.996;2023-02-28T07:41:44;98537.44;;;-1.59;70.66
72525;BME280;60547;48.502;8.996;2023-02-28T07:44:10;98527.09;;;-1.54;70.15
72525;BME280;60547;48.502;8.996;2023-02-28T07:46:36;98538.13;;;-1.50;70.39
72525;BME280;60547;48.502;8.996;2023-02-28T07:49:02;98531.41;;;-1.65;70.91
72525;BME280;60547;48.502;8.996;2023-02-28T07:51:29;98536.75;;;-1.44;69.84
72525;BME280;60547;48.502;8.996;2023-02-28T07:53:54;98544.72;;;-1.39;69.83
72525;BME280;60547;48.502;8.996;2023-02-28T07:56:20;98521.63;;;-1.42;70.46
72525;BME280;60547;48.502;8.996;2023-02-28T07:58:46;98537.91;;;-1.33;69.58
72525;BME280;60547;48.502;8.996;2023-02-28T08:01:11;98538.56;;;-1.24;69.65
72525;BME280;60547;48.502;8.996;2023-02-28T08:03:39;98532.53;;;-1.29;68.93
72525;BME280;60547;48.502;8.996;2023-02-28T08:06:07;98557.22;;;-1.38;69.52
72525;BME280;60547;48.502;8.996;2023-02-28T08:08:33;98550.28;;;-1.23;69.02
72525;BME280;60547;48.502;8.996;2023-02-28T08:11:00;98553.13;;;-1.32;69.84
72525;BME280;60547;48.502;8.996;2023-02-28T08:13:27;98539.25;;;-1.39;69.46
72525;BME280;60547;48.502;8.996;2023-02-28T08:15:54;98556.31;;;-1.30;69.70
72525;BME280;60547;48.502;8.996;2023-02-28T08:18:20;98543.47;;;-1.42;70.03
72525;BME280;60547;48.502;8.996;2023-02-28T08:20:46;98561.19;;;-1.23;69.14
72525;BME280;60547;48.502;8.996;2023-02-28T08:23:12;98560.88;;;-1.34;69.00
72525;BME280;60547;48.502;8.996;2023-02-28T08:25:38;98564.13;;;-1.04;69.49
72525;BME280;60547;48.502;8.996;2023-02-28T08:28:04;98559.03;;;-1.06;68.07
72525;BME280;60547;48.502;8.996;2023-02-28T08:30:29;98572.69;;;-1.18;68.61
72525;BME280;60547;48.502;8.996;2023-02-28T08:32:55;98547.66;;;-1.20;68.71
72525;BME280;60547;48.502;8.996;2023-02-28T08:35:21;98565.75;;;-1.15;68.69
72525;BME280;60547;48.502;8.996;2023-02-28T08:37:50;98559.59;;;-1.12;68.78
72525;BME280;60547;48.502;8.996;2023-02-28T08:40:16;98561.31;;;-1.08;68.21
72525;BME280;60547;48.502;8.996;2023-02-28T08:42:47;98560.41;;;-1.12;68.05
72525;BME280;60547;48.502;8.996;2023-02-28T08:45:14;98554.00;;;-1.04;68.16
72525;BME280;60547;48.502;8.996;2023-02-28T08:47:40;98570.41;;;-1.04;68.03
72525;BME280;60547;48.502;8.996;2023-02-28T08:50:07;98572.22;;;-1.08;68.11
72525;BME280;60547;48.502;8.996;2023-02-28T08:52:33;98564.91;;;-0.91;67.81
72525;BME280;60547;48.502;8.996;2023-02-28T08:54:58;98571.28;;;-0.87;68.17
72525;BME280;60547;48.502;8.996;2023-02-28T08:57:24;98558.56;;;-0.95;68.36
72525;BME280;60547;48.502;8.996;2023-02-28T08:59:51;98586.66;;;-0.95;67.94
72525;BME280;60547;48.502;8.996;2023-02-28T09:02:17;98584.16;;;-1.00;67.68
72525;BME280;60547;48.502;8.996;2023-02-28T09:04:43;98588.25;;;-0.94;68.09
72525;BME280;60547;48.502;8.996;2023-02-28T09:07:11;98581.44;;;-1.00;67.45
72525;BME280;60547;48.502;8.996;2023-02-28T09:09:37;98580.16;;;-0.90;68.08
72525;BME280;60547;48.502;8.996;2023-02-28T09:12:03;98585.81;;;-0.71;67.03
72525;BME280;60547;48.502;8.996;2023-02-28T09:14:28;98582.25;;;-0.59;66.83
72525;BME280;60547;48.502;8.996;2023-02-28T09:16:54;98589.25;;;-0.74;66.18
72525;BME280;60547;48.502;8.996;2023-02-28T09:19:20;98585.38;;;-0.85;65.92
72525;BME280;60547;48.502;8.996;2023-02-28T09:21:45;98594.97;;;-0.91;66.53
72525;BME280;60547;48.502;8.996;2023-02-28T09:24:11;98591.31;;;-0.83;65.89
72525;BME280;60547;48.502;8.996;2023-02-28T09:26:39;98589.97;;;-0.49;65.50
72525;BME280;60547;48.502;8.996;2023-02-28T09:29:05;98594.69;;;-0.74;65.07
72525;BME280;60547;48.502;8.996;2023-02-28T09:31:32;98586.81;;;-0.63;65.18
72525;BME280;60547;48.502;8.996;2023-02-28T09:33:58;98594.78;;;-0.58;65.20
72525;BME280;60547;48.502;8.996;2023-02-28T09:36:25;98586.06;;;-0.76;65.71
72525;BME280;60547;48.502;8.996;2023-02-28T09:38:51;98583.09;;;-0.71;65.81
72525;BME280;60547;48.502;8.996;2023-02-28T09:41:23;98596.50;;;-0.66;65.33
72525;BME280;60547;48.502;8.996;2023-02-28T09:43:58;98598.97;;;-0.49;64.48
72525;BME280;60547;48.502;8.996;2023-02-28T09:46:44;98599.56;;;-0.55;65.11
72525;BME280;60547;48.502;8.996;2023-02-28T09:49:13;98609.59;;;-0.59;64.60
72525;BME280;60547;48.502;8.996;2023-02-28T09:54:15;98607.19;;;-0.61;65.00
72525;BME280;60547;48.502;8.996;2023-02-28T09:56:47;98604.44;;;-0.49;64.94
72525;BME280;60547;48.502;8.996;2023-02-28T09:59:36;98610.91;;;-0.41;64.65
72525;BME280;60547;48.502;8.996;2023-02-28T10:07:07;98626.47;;;-0.29;64.15
72525;BME280;60547;48.502;8.996;2023-02-28T10:09:45;98618.72;;;-0.27;63.99
72525;BME280;60547;48.502;8.996;2023-02-28T10:12:12;98619.66;;;-0.08;63.88
72525;BME280;60547;48.502;8.996;2023-02-28T10:14:44;98625.94;;;-0.07;64.45
72525;BME280;60547;48.502;8.996;2023-02-28T10:17:13;98623.66;;;-0.05;63.43
72525;BME280;60547;48.502;8.996;2023-02-28T10:19:49;98612.78;;;0.26;64.15
72525;BME280;60547;48.502;8.996;2023-02-28T10:22:31;98620.34;;;0.17;62.58
72525;BME280;60547;48.502;8.996;2023-02-28T10:24:59;98629.56;;;-0.03;62.89
72525;BME280;60547;48.502;8.996;2023-02-28T10:27:31;98617.53;;;-0.14;63.17
72525;BME280;60547;48.502;8.996;2023-02-28T10:30:01;98626.22;;;-0.24;63.66
72525;BME280;60547;48.502;8.996;2023-02-28T10:32:32;98627.16;;;-0.05;63.08
72525;BME280;60547;48.502;8.996;2023-02-28T10:35:17;98615.38;;;0.07;63.55
72525;BME280;60547;48.502;8.996;2023-02-28T10:37:46;98614.69;;;0.10;62.68
72525;BME280;60547;48.502;8.996;2023-02-28T10:43:05;98620.56;;;0.40;62.11
72525;BME280;60547;48.502;8.996;2023-02-28T10:53:29;98621.53;;;0.48;61.61
72525;BME280;60547;48.502;8.996;2023-02-28T11:01:43;98613.22;;;0.44;61.76
72525;BME280;60547;48.502;8.996;2023-02-28T11:06:56;98626.75;;;0.53;61.16
72525;BME280;60547;48.502;8.996;2023-02-28T11:09:35;98627.09;;;0.36;61.37
72525;BME280;60547;48.502;8.996;2023-02-28T11:12:04;98622.78;;;0.50;61.53
72525;BME280;60547;48.502;8.996;2023-02-28T11:14:35;98628.16;;;0.47;60.76
72525;BME280;60547;48.502;8.996;2023-02-28T11:17:14;98632.03;;;0.46;61.58
72525;BME280;60547;48.502;8.996;2023-02-28T11:19:46;98617.56;;;0.61;60.88
72525;BME280;60547;48.502;8.996;2023-02-28T11:22:18;98630.47;;;0.76;60.96
72525;BME280;60547;48.502;8.996;2023-02-28T11:24:47;98633.47;;;0.71;61.10
72525;BME280;60547;48.502;8.996;2023-02-28T11:27:25;98630.72;;;0.71;60.55
72525;BME280;60547;48.502;8.996;2023-02-28T11:29:52;98633.72;;;0.98;60.48
72525;BME280;60547;48.502;8.996;2023-02-28T11:32:24;98626.16;;;1.26;60.00
72525;BME280;60547;48.502;8.996;2023-02-28T11:37:51;98622.22;;;1.08;59.04
72525;BME280;60547;48.502;8.996;2023-02-28T11:40:21;98628.84;;;1.22;59.44
72525;BME280;60547;48.502;8.996;2023-02-28T11:43:00;98625.56;;;1.17;58.74
72525;BME280;60547;48.502;8.996;2023-02-28T11:45:45;98630.78;;;1.22;58.89
72525;BME280;60547;48.502;8.996;2023-02-28T11:48:27;98615.63;;;1.82;59.31
72525;BME280;60547;48.502;8.996;2023-02-28T11:51:11;98619.59;;;1.85;58.07
72525;BME280;60547;48.502;8.996;2023-02-28T11:56:23;98606.44;;;2.55;57.64
72525;BME280;60547;48.502;8.996;2023-02-28T11:58:59;98605.38;;;2.41;56.64
72525;BME280;60547;48.502;8.996;2023-02-28T12:01:32;98605.69;;;2.81;55.50
72525;BME280;60547;48.502;8.996;2023-02-28T12:04:09;98605.44;;;2.90;55.21
72525;BME280;60547;48.502;8.996;2023-02-28T12:12:23;98600.22;;;3.94;52.17
72525;BME280;60547;48.502;8.996;2023-02-28T12:15:23;98599.66;;;4.15;51.11
72525;BME280;60547;48.502;8.996;2023-02-28T12:20:32;98589.13;;;4.61;50.49
72525;BME280;60547;48.502;8.996;2023-02-28T12:23:23;98591.03;;;4.57;50.01
72525;BME280;60547;48.502;8.996;2023-02-28T12:28:41;98583.34;;;5.32;48.64
72525;BME280;60547;48.502;8.996;2023-02-28T12:31:18;98584.22;;;5.43;48.31
72525;BME280;60547;48.502;8.996;2023-02-28T12:33:51;98586.16;;;4.84;49.26
72525;BME280;60547;48.502;8.996;2023-02-28T12:36:19;98574.22;;;4.69;48.97
72525;BME280;60547;48.502;8.996;2023-02-28T12:38:50;98574.88;;;5.03;49.59
72525;BME280;60547;48.502;8.996;2023-02-28T12:41:40;98565.84;;;5.06;49.05
72525;BME280;60547;48.502;8.996;2023-02-28T12:44:17;98569.25;;;4.41;51.41
72525;BME280;60547;48.502;8.996;2023-02-28T12:46:50;98573.81;;;4.67;49.64
72525;BME280;60547;48.502;8.996;2023-02-28T12:49:25;98576.91;;;4.21;50.36
72525;BME280;60547;48.502;8.996;2023-02-28T12:51:53;98567.13;;;3.91;50.92
72525;BME280;60547;48.502;8.996;2023-02-28T12:57:21;98569.09;;;4.27;51.52
72525;BME280;60547;48.502;8.996;2023-02-28T12:59:51;98557.16;;;4.12;51.29
72525;BME280;60547;48.502;8.996;2023-02-28T13:10:54;98545.88;;;4.69;49.85
72525;BME280;60547;48.502;8.996;2023-02-28T13:13:22;98545.38;;;5.11;48.45
72525;BME280;60547;48.502;8.996;2023-02-28T13:16:06;98548.28;;;4.74;49.03
72525;BME280;60547;48.502;8.996;2023-02-28T13:18:33;98546.00;;;4.86;48.81
72525;BME280;60547;48.502;8.996;2023-02-28T13:21:01;98541.00;;;5.03;48.12
72525;BME280;60547;48.502;8.996;2023-02-28T13:26:17;98543.97;;;5.35;47.63
72525;BME280;60547;48.502;8.996;2023-02-28T13:31:14;98534.31;;;5.83;46.78
72525;BME280;60547;48.502;8.996;2023-02-28T13:47:19;98532.03;;;5.16;47.86
72525;BME280;60547;48.502;8.996;2023-02-28T13:54:34;98532.25;;;5.59;47.13
72525;BME280;60547;48.502;8.996;2023-02-28T13:57:20;98543.94;;;5.31;47.47
72525;BME280;60547;48.502;8.996;2023-02-28T14:03:53;98528.25;;;5.49;48.11
72525;BME280;60547;48.502;8.996;2023-02-28T14:05:46;98534.59;;;5.54;48.50
72525;BME280;60547;48.502;8.996;2023-02-28T14:08:16;98539.72;;;5.55;49.13
72525;BME280;60547;48.502;8.996;2023-02-28T14:10:51;98536.16;;;5.55;48.24
72525;BME280;60547;48.502;8.996;2023-02-28T14:15:57;98524.25;;;5.36;48.46
72525;BME280;60547;48.502;8.996;2023-02-28T14:18:37;98509.22;;;5.27;49.23
72525;BME280;60547;48.502;8.996;2023-02-28T14:21:09;98535.41;;;5.58;48.59
72525;BME280;60547;48.502;8.996;2023-02-28T14:26:33;98518.44;;;5.59;47.99
72525;BME280;60547;48.502;8.996;2023-02-28T14:29:27;98516.09;;;5.61;47.78
72525;BME280;60547;48.502;8.996;2023-02-28T14:32:06;98520.44;;;5.66;47.68
72525;BME280;60547;48.502;8.996;2023-02-28T14:37:13;98520.63;;;6.23;45.82
72525;BME280;60547;48.502;8.996;2023-02-28T14:39:43;98529.25;;;6.00;47.33
72525;BME280;60547;48.502;8.996;2023-02-28T14:42:28;98524.63;;;6.46;46.03
72525;BME280;60547;48.502;8.996;2023-02-28T14:44:54;98519.78;;;5.90;46.94
72525;BME280;60547;48.502;8.996;2023-02-28T14:47:23;98525.34;;;6.04;46.58
72525;BME280;60547;48.502;8.996;2023-02-28T14:49:50;98519.06;;;6.36;46.34
72525;BME280;60547;48.502;8.996;2023-02-28T14:54:52;98520.22;;;7.13;44.61
72525;BME280;60547;48.502;8.996;2023-02-28T14:57:28;98516.31;;;6.36;45.69
72525;BME280;60547;48.502;8.996;2023-02-28T15:00:14;98528.06;;;5.97;46.74
72525;BME280;60547;48.502;8.996;2023-02-28T15:02:41;98519.47;;;5.26;47.90
72525;BME280;60547;48.502;8.996;2023-02-28T15:07:42;98526.09;;;5.14;48.11
72525;BME280;60547;48.502;8.996;2023-02-28T15:10:25;98518.69;;;5.26;48.52
72525;BME280;60547;48.502;8.996;2023-02-28T15:12:58;98522.34;;;5.47;47.99
72525;BME280;60547;48.502;8.996;2023-02-28T15:16:12;98517.13;;;5.32;49.06
72525;BME280;60547;48.502;8.996;2023-02-28T15:18:18;98527.91;;;5.62;49.30
72525;BME280;60547;48.502;8.996;2023-02-28T15:20:46;98524.78;;;5.67;47.85
72525;BME280;60547;48.502;8.996;2023-02-28T15:23:12;98516.84;;;5.55;47.13
72525;BME280;60547;48.502;8.996;2023-02-28T15:25:39;98516.78;;;5.40;47.56